createdAt,value
2019-02-06T00:01:03.550Z,102701.41
2019-02-06T00:03:32.439Z,102704.89
2019-02-06T00:06:01.076Z,102699.74
2019-02-06T00:08:29.618Z,102697.04
2019-02-06T00:10:58.250Z,102696.48
2019-02-06T00:13:27.169Z,102693.22
2019-02-06T00:15:56.026Z,102689.46
2019-02-06T00:18:24.817Z,102688.94
2019-02-06T00:20:53.643Z,102684.88
2019-02-06T00:23:22.389Z,102688.13
2019-02-06T00:25:51.782Z,102685.99
2019-02-06T00:28:20.526Z,102684.39
2019-02-06T00:30:49.655Z,102683.30
2019-02-06T00:33:18.343Z,102684.37
2019-02-06T00:35:47.142Z,102679.23
2019-02-06T00:38:15.706Z,102665.45
2019-02-06T00:40:45.872Z,102675.73
2019-02-06T00:43:14.549Z,102666.55
2019-02-06T00:45:43.668Z,102659.53
2019-02-06T00:48:13.603Z,102652.52
2019-02-06T00:50:42.486Z,102660.87
2019-02-06T00:53:10.955Z,102649.25
2019-02-06T00:55:39.460Z,102644.95
2019-02-06T00:58:07.953Z,102631.14
2019-02-06T01:00:37.023Z,102633.86
2019-02-06T01:03:06.766Z,102638.72
2019-02-06T01:05:38.383Z,102633.86
2019-02-06T01:08:06.196Z,102631.42
2019-02-06T01:10:34.951Z,102624.95
2019-02-06T01:13:04.016Z,102627.67
2019-02-06T01:15:33.461Z,102627.11
2019-02-06T01:18:02.027Z,102630.61
2019-02-06T01:20:30.599Z,102626.83
2019-02-06T01:22:59.912Z,102620.32
2019-02-06T01:25:28.693Z,102621.69
2019-02-06T01:27:57.247Z,102628.19
2019-02-06T01:30:28.081Z,102618.45
2019-02-06T01:32:58.252Z,102623.84
2019-02-06T01:35:26.934Z,102614.14
2019-02-06T01:37:56.352Z,102611.44
2019-02-06T01:40:25.124Z,102606.31
2019-02-06T01:42:53.700Z,102599.52
2019-02-06T01:45:31.403Z,102593.32
2019-02-06T01:48:00.564Z,102589.51
2019-02-06T01:50:28.958Z,102595.23
2019-02-06T01:52:57.558Z,102592.78
2019-02-06T01:55:26.047Z,102594.92
2019-02-06T01:57:57.206Z,102592.73
2019-02-06T02:00:26.119Z,102594.34
2019-02-06T02:02:55.200Z,102585.73
2019-02-06T02:05:23.939Z,102584.84
2019-02-06T02:07:52.629Z,102580.31
2019-02-06T02:10:21.356Z,102580.34
2019-02-06T02:12:50.567Z,102580.07
2019-02-06T02:15:19.134Z,102580.00
2019-02-06T02:17:47.814Z,102567.35
2019-02-06T02:20:19.128Z,102572.13
2019-02-06T02:22:47.730Z,102567.63
2019-02-06T02:25:16.709Z,102560.09
2019-02-06T02:27:45.495Z,102561.98
2019-02-06T02:30:22.822Z,102550.86
2019-02-06T02:32:51.817Z,102550.28
2019-02-06T02:35:20.568Z,102549.53
2019-02-06T02:37:49.355Z,102545.77
2019-02-06T02:40:17.900Z,102540.06
2019-02-06T02:42:46.421Z,102533.00
2019-02-06T02:45:17.962Z,102524.27
2019-02-06T02:47:46.955Z,102512.89
2019-02-06T02:50:16.000Z,102504.53
2019-02-06T02:52:44.423Z,102497.52
2019-02-06T02:55:14.046Z,102498.26
2019-02-06T02:57:42.712Z,102496.11
2019-02-06T03:00:17.684Z,102488.83
2019-02-06T03:03:13.242Z,102480.73
2019-02-06T03:05:41.818Z,102471.61
2019-02-06T03:08:10.287Z,102471.13
2019-02-06T03:10:38.940Z,102463.87
2019-02-06T03:13:07.807Z,102467.95
2019-02-06T03:15:36.515Z,102459.05
2019-02-06T03:18:05.598Z,102455.00
2019-02-06T03:20:34.129Z,102452.31
2019-02-06T03:23:02.707Z,102452.03
2019-02-06T03:25:31.239Z,102446.41
2019-02-06T03:27:59.986Z,102443.45
2019-02-06T03:30:28.560Z,102432.61
2019-02-06T03:32:57.057Z,102427.25
2019-02-06T03:35:25.750Z,102428.61
2019-02-06T03:37:55.756Z,102415.38
2019-02-06T03:40:24.338Z,102418.88
2019-02-06T03:42:52.895Z,102423.75
2019-02-06T03:45:21.452Z,102418.36
2019-02-06T03:47:50.092Z,102419.69
2019-02-06T03:50:20.727Z,102418.09
2019-02-06T03:52:49.343Z,102410.23
2019-02-06T03:55:17.989Z,102406.47
2019-02-06T03:57:46.591Z,102399.73
2019-02-06T04:00:16.112Z,102395.95
2019-02-06T04:02:44.729Z,102383.00
2019-02-06T04:05:13.851Z,102374.35
2019-02-06T04:07:42.432Z,102378.41
2019-02-06T04:10:13.350Z,102373.56
2019-02-06T04:12:42.028Z,102364.91
2019-02-06T04:15:11.474Z,102366.52
2019-02-06T04:17:40.020Z,102367.89
2019-02-06T04:20:09.910Z,102362.49
2019-02-06T04:22:38.369Z,102356.83
2019-02-06T04:25:07.827Z,102353.85
2019-02-06T04:27:36.425Z,102353.33
2019-02-06T04:30:07.371Z,102350.89
2019-02-06T04:32:35.899Z,102345.23
2019-02-06T04:35:07.106Z,102337.12
2019-02-06T04:37:35.726Z,102336.86
2019-02-06T04:40:09.075Z,102331.20
2019-02-06T04:42:37.605Z,102327.68
2019-02-06T04:45:07.079Z,102326.34
2019-02-06T04:47:35.666Z,102333.89
2019-02-06T04:50:06.032Z,102335.80
2019-02-06T04:52:34.858Z,102324.73
2019-02-06T04:55:04.085Z,102319.87
2019-02-06T04:57:33.773Z,102321.20
2019-02-06T05:00:04.093Z,102326.88
2019-02-06T05:02:32.561Z,102324.45
2019-02-06T05:05:01.125Z,102328.77
2019-02-06T05:07:29.756Z,102330.66
2019-02-06T05:09:58.325Z,102324.73
2019-02-06T05:12:26.931Z,102323.92
2019-02-06T05:14:55.920Z,102315.81
2019-02-06T05:17:24.718Z,102315.82
2019-02-06T05:19:53.444Z,102310.95
2019-02-06T05:22:21.915Z,102308.27
2019-02-06T05:24:50.622Z,102311.78
2019-02-06T05:27:19.099Z,102300.17
2019-02-06T05:29:47.911Z,102302.59
2019-02-06T05:32:16.653Z,102301.52
2019-02-06T05:34:45.352Z,102295.33
2019-02-06T05:37:13.939Z,102293.16
2019-02-06T05:39:42.766Z,102286.41
2019-02-06T05:42:11.559Z,102286.95
2019-02-06T05:44:41.971Z,102285.89
2019-02-06T05:47:10.633Z,102286.69
2019-02-06T05:49:39.626Z,102279.95
2019-02-06T05:52:08.465Z,102288.05
2019-02-06T05:54:37.042Z,102277.00
2019-02-06T05:57:05.633Z,102284.00
2019-02-06T05:59:34.642Z,102279.16
2019-02-06T06:02:04.662Z,102276.72
2019-02-06T06:04:33.243Z,102266.47
2019-02-06T06:07:02.054Z,102266.75
2019-02-06T06:09:30.613Z,102245.72
2019-02-06T06:11:59.217Z,102243.83
2019-02-06T06:14:27.853Z,102258.11
2019-02-06T06:16:56.276Z,102251.09
2019-02-06T06:19:25.488Z,102254.08
2019-02-06T06:21:54.591Z,102247.58
2019-02-06T06:24:23.334Z,102242.20
2019-02-06T06:26:51.858Z,102243.30
2019-02-06T06:29:21.015Z,102231.98
2019-02-06T06:31:49.722Z,102229.55
2019-02-06T06:34:18.185Z,102237.89
2019-02-06T06:36:46.981Z,102233.84
2019-02-06T06:39:16.123Z,102236.55
2019-02-06T06:41:45.080Z,102229.77
2019-02-06T06:44:13.665Z,102231.93
2019-02-06T06:46:42.114Z,102235.97
2019-02-06T06:49:10.570Z,102229.23
2019-02-06T06:51:39.240Z,102228.15
2019-02-06T06:54:07.946Z,102229.75
2019-02-06T06:56:36.821Z,102222.17
2019-02-06T06:59:05.486Z,102227.57
2019-02-06T07:01:34.797Z,102231.36
2019-02-06T07:04:03.551Z,102232.17
2019-02-06T07:06:32.037Z,102234.04
2019-02-06T07:09:00.932Z,102225.97
2019-02-06T07:11:29.786Z,102229.47
2019-02-06T07:13:58.706Z,102226.23
2019-02-06T07:16:27.293Z,102225.66
2019-02-06T07:18:55.862Z,102220.27
2019-02-06T07:21:24.358Z,102220.01
2019-02-06T07:23:53.480Z,102210.57
2019-02-06T07:26:22.253Z,102209.77
2019-02-06T07:28:51.095Z,102209.75
2019-02-06T07:31:19.838Z,102206.98
2019-02-06T07:33:48.541Z,102213.75
2019-02-06T07:36:18.307Z,102202.77
2019-02-06T07:38:47.244Z,102212.74
2019-02-06T07:41:15.993Z,102204.41
2019-02-06T07:43:44.737Z,102213.75
2019-02-06T07:46:13.443Z,102212.89
2019-02-06T07:48:42.125Z,102210.47
2019-02-06T07:51:11.176Z,102205.42
2019-02-06T07:53:39.689Z,102200.99
2019-02-06T07:56:08.383Z,102200.68
2019-02-06T07:58:37.528Z,102206.23
2019-02-06T08:01:06.225Z,102207.83
2019-02-06T08:03:34.900Z,102200.54
2019-02-06T08:06:03.735Z,102207.81
2019-02-06T08:08:36.189Z,102211.57
2019-02-06T08:11:03.571Z,102213.39
2019-02-06T08:13:32.914Z,102202.17
2019-02-06T08:16:01.887Z,102203.66
2019-02-06T08:18:30.500Z,102201.36
2019-02-06T08:20:59.215Z,102197.59
2019-02-06T08:23:28.031Z,102195.09
2019-02-06T08:25:56.695Z,102196.98
2019-02-06T08:28:25.302Z,102198.77
2019-02-06T08:30:54.595Z,102196.03
2019-02-06T08:33:23.881Z,102192.50
2019-02-06T08:35:52.572Z,102199.73
2019-02-06T08:38:21.126Z,102196.86
2019-02-06T08:40:49.851Z,102194.88
2019-02-06T08:43:18.591Z,102194.52
2019-02-06T08:45:47.324Z,102185.79
2019-02-06T08:48:15.888Z,102183.53
2019-02-06T08:50:44.565Z,102176.90
2019-02-06T08:53:13.050Z,102184.66
2019-02-06T08:55:41.726Z,102176.44
2019-02-06T08:58:10.305Z,102183.66
2019-02-06T09:00:39.821Z,102182.26
2019-02-06T09:03:10.672Z,102181.30
2019-02-06T09:05:40.367Z,102175.02
2019-02-06T09:08:09.666Z,102169.77
2019-02-06T09:10:38.777Z,102177.67
2019-02-06T09:13:07.333Z,102185.58
2019-02-06T09:15:36.419Z,102176.49
2019-02-06T09:18:06.104Z,102172.62
2019-02-06T09:20:35.268Z,102168.11
2019-02-06T09:23:04.891Z,102165.05
2019-02-06T09:25:33.659Z,102157.67
2019-02-06T09:28:02.231Z,102164.41
2019-02-06T09:30:32.551Z,102167.19
2019-02-06T09:33:01.453Z,102164.84
2019-02-06T09:35:29.935Z,102163.42
2019-02-06T09:37:58.635Z,102163.64
2019-02-06T09:40:29.202Z,102175.06
2019-02-06T09:42:57.768Z,102164.03
2019-02-06T09:45:26.556Z,102166.94
2019-02-06T09:47:55.576Z,102165.22
2019-02-06T09:50:28.201Z,102167.06
2019-02-06T09:52:57.131Z,102166.14
2019-02-06T09:55:26.706Z,102162.92
2019-02-06T09:57:55.998Z,102155.39
2019-02-06T10:00:28.714Z,102150.20
2019-02-06T10:02:57.287Z,102146.86
2019-02-06T10:05:26.584Z,102148.16
2019-02-06T10:07:55.258Z,102139.21
2019-02-06T10:10:24.399Z,102128.66
2019-02-06T10:12:53.415Z,102146.86
2019-02-06T10:15:30.769Z,102145.78
2019-02-06T10:18:01.037Z,102141.52
2019-02-06T10:20:45.735Z,102137.37
2019-02-06T10:23:14.448Z,102134.20
2019-02-06T10:25:43.022Z,102134.14
2019-02-06T10:28:11.681Z,102137.77
2019-02-06T10:30:47.485Z,102143.32
2019-02-06T10:33:18.660Z,102143.92
2019-02-06T10:35:46.623Z,102148.80
2019-02-06T10:38:15.350Z,102140.16
2019-02-06T10:40:43.924Z,102143.53
2019-02-06T10:43:12.607Z,102140.48
2019-02-06T10:45:41.800Z,102150.61
2019-02-06T10:48:10.364Z,102143.18
2019-02-06T10:50:43.493Z,102142.97
2019-02-06T10:53:12.170Z,102148.28
2019-02-06T10:55:40.743Z,102139.57
2019-02-06T10:58:09.634Z,102144.84
2019-02-06T11:00:46.069Z,102139.66
2019-02-06T11:03:14.832Z,102140.71
2019-02-06T11:05:43.704Z,102135.71
2019-02-06T11:08:12.449Z,102130.68
2019-02-06T11:10:41.638Z,102140.08
2019-02-06T11:13:10.166Z,102137.72
2019-02-06T11:15:38.777Z,102133.66
2019-02-06T11:18:07.356Z,102125.47
2019-02-06T11:20:37.056Z,102122.25
2019-02-06T11:23:07.009Z,102122.67
2019-02-06T11:25:36.662Z,102118.48
2019-02-06T11:28:06.475Z,102114.92
2019-02-06T11:30:35.815Z,102114.50
2019-02-06T11:33:05.750Z,102111.37
2019-02-06T11:35:34.721Z,102106.52
2019-02-06T11:38:03.795Z,102101.91
2019-02-06T11:40:32.606Z,102101.79
2019-02-06T11:43:01.164Z,102100.52
2019-02-06T11:45:31.659Z,102098.33
2019-02-06T11:48:00.725Z,102089.17
2019-02-06T11:50:40.271Z,102087.94
2019-02-06T11:53:12.667Z,102086.28
2019-02-06T11:55:41.145Z,102081.05
2019-02-06T11:58:10.287Z,102076.16
2019-02-06T12:01:05.209Z,102079.41
2019-02-06T12:03:33.786Z,102075.92
2019-02-06T12:06:02.523Z,102073.55
2019-02-06T12:08:31.467Z,102074.78
2019-02-06T12:11:00.555Z,102073.51
2019-02-06T12:13:29.036Z,102074.51
2019-02-06T12:15:57.543Z,102080.25
2019-02-06T12:18:26.108Z,102078.96
2019-02-06T12:20:54.737Z,102076.13
2019-02-06T12:23:32.006Z,102079.27
2019-02-06T12:25:54.111Z,102081.70
2019-02-06T12:28:23.201Z,102081.37
2019-02-06T12:30:51.742Z,102066.95
2019-02-06T12:33:20.433Z,102063.84
2019-02-06T12:35:49.014Z,102065.23
2019-02-06T12:38:17.643Z,102057.88
2019-02-06T12:40:46.404Z,102061.02
2019-02-06T12:43:14.872Z,102057.19
2019-02-06T12:45:43.821Z,102057.16
2019-02-06T12:48:12.396Z,102052.46
2019-02-06T12:50:41.027Z,102042.67
2019-02-06T12:53:09.545Z,102039.91
2019-02-06T12:55:38.688Z,102042.55
2019-02-06T12:58:08.091Z,102031.31
2019-02-06T13:00:39.488Z,102038.52
2019-02-06T13:03:08.552Z,102033.89
2019-02-06T13:05:38.143Z,102034.42
2019-02-06T13:08:07.320Z,102041.39
2019-02-06T13:10:36.120Z,102029.19
2019-02-06T13:13:05.441Z,102028.81
2019-02-06T13:15:34.445Z,102027.36
2019-02-06T13:18:04.304Z,102030.61
2019-02-06T13:20:33.404Z,102024.27
2019-02-06T13:23:02.502Z,102023.13
2019-02-06T13:25:30.986Z,102009.26
2019-02-06T13:27:59.541Z,102001.22
2019-02-06T13:30:32.252Z,102008.81
2019-02-06T13:33:01.160Z,102004.23
2019-02-06T13:35:29.737Z,102002.41
2019-02-06T13:37:58.294Z,102000.62
2019-02-06T13:40:27.811Z,101996.52
2019-02-06T13:42:56.908Z,102005.43
2019-02-06T13:45:29.612Z,102006.72
2019-02-06T13:47:58.215Z,102006.72
2019-02-06T13:50:28.188Z,102003.80
2019-02-06T13:52:56.765Z,102009.19
2019-02-06T13:55:25.891Z,102004.48
2019-02-06T13:57:54.730Z,102000.04
2019-02-06T14:00:27.334Z,102003.77
2019-02-06T14:02:56.034Z,102001.40
2019-02-06T14:05:27.998Z,101997.14
2019-02-06T14:08:00.111Z,101991.16
2019-02-06T14:10:29.258Z,101990.95
2019-02-06T14:12:59.087Z,101992.34
2019-02-06T14:15:31.826Z,101986.72
2019-02-06T14:18:01.051Z,101992.31
2019-02-06T14:20:30.274Z,101986.72
2019-02-06T14:23:15.594Z,101987.33
2019-02-06T14:26:26.379Z,101988.34
2019-02-06T14:29:57.786Z,101975.03
2019-02-06T14:33:22.496Z,101978.55
2019-02-06T14:36:24.296Z,101964.48
2019-02-06T14:39:20.222Z,101964.48
2019-02-06T14:42:34.324Z,101964.42
2019-02-06T14:46:20.529Z,101966.03
2019-02-06T14:50:06.677Z,101960.10
2019-02-06T14:53:10.238Z,101957.78
2019-02-06T14:56:48.550Z,101956.34
2019-02-06T15:00:08.370Z,101948.31
2019-02-06T15:03:45.609Z,101951.71
2019-02-06T15:07:15.872Z,101950.50
2019-02-06T15:10:59.378Z,101943.73
2019-02-06T15:14:46.451Z,101948.87
2019-02-06T15:18:31.247Z,101948.16
2019-02-06T15:22:18.898Z,101948.52
2019-02-06T15:25:31.208Z,101948.07
2019-02-06T15:28:58.229Z,101943.31
2019-02-06T15:32:23.320Z,101939.13
2019-02-06T15:35:30.265Z,101933.95
2019-02-06T15:38:39.952Z,101931.13
2019-02-06T15:42:00.457Z,101935.08
2019-02-06T15:45:32.753Z,101934.63
2019-02-06T15:48:31.689Z,101936.22
2019-02-06T15:51:32.640Z,101924.06
2019-02-06T15:55:01.404Z,101925.50
2019-02-06T15:58:26.858Z,101932.75
2019-02-06T16:01:39.706Z,101933.81
2019-02-06T16:04:55.341Z,101928.75
2019-02-06T16:08:37.017Z,101927.61
2019-02-06T16:12:17.876Z,101931.97
2019-02-06T16:15:40.366Z,101923.42
2019-02-06T16:18:38.967Z,101923.94
2019-02-06T16:22:09.167Z,101923.85
2019-02-06T16:25:05.552Z,101924.78
2019-02-06T16:28:35.047Z,101921.74
2019-02-06T16:31:57.396Z,101918.91
2019-02-06T16:35:07.036Z,101926.95
2019-02-06T16:37:56.960Z,101919.03
2019-02-06T16:41:37.247Z,101922.80
2019-02-06T16:44:34.214Z,101914.88
2019-02-06T16:47:52.311Z,101910.16
2019-02-06T16:51:09.191Z,101916.00
2019-02-06T16:54:59.690Z,101915.22
2019-02-06T16:58:27.537Z,101914.80
2019-02-06T17:01:49.014Z,101912.78
2019-02-06T17:04:49.383Z,101906.82
2019-02-06T17:07:56.969Z,101904.75
2019-02-06T17:11:51.266Z,101905.70
2019-02-06T17:15:25.922Z,101903.03
2019-02-06T17:18:42.467Z,101909.47
2019-02-06T17:22:23.500Z,101909.56
2019-02-06T17:25:40.032Z,101910.58
2019-02-06T17:29:06.144Z,101902.40
2019-02-06T17:32:22.915Z,101901.11
2019-02-06T17:35:09.262Z,101900.27
2019-02-06T17:38:59.160Z,101890.84
2019-02-06T17:41:44.448Z,101886.96
2019-02-06T17:44:56.131Z,101888.02
2019-02-06T17:48:16.230Z,101889.38
2019-02-06T17:51:18.807Z,101888.95
2019-02-06T17:54:47.004Z,101885.10
2019-02-06T17:57:15.676Z,101888.14
2019-02-06T17:59:44.272Z,101882.66
2019-02-06T18:02:13.156Z,101879.02
2019-02-06T18:04:44.918Z,101879.59
2019-02-06T18:07:13.579Z,101878.09
2019-02-06T18:09:42.496Z,101880.28
2019-02-06T18:12:11.500Z,101877.19
2019-02-06T18:14:40.157Z,101874.11
2019-02-06T18:17:08.728Z,101878.39
2019-02-06T18:19:39.428Z,101876.04
2019-02-06T18:22:08.838Z,101874.70
2019-02-06T18:24:37.609Z,101862.87
2019-02-06T18:27:06.727Z,101861.58
2019-02-06T18:29:35.565Z,101859.98
2019-02-06T18:32:05.020Z,101860.64
2019-02-06T18:34:33.803Z,101857.52
2019-02-06T18:37:02.580Z,101849.80
2019-02-06T18:39:31.207Z,101854.45
2019-02-06T18:41:59.872Z,101854.98
2019-02-06T18:44:29.237Z,101845.95
2019-02-06T18:47:00.263Z,101855.36
2019-02-06T18:49:28.901Z,101864.46
2019-02-06T18:51:57.571Z,101862.70
2019-02-06T18:54:26.393Z,101874.25
2019-02-06T18:56:55.082Z,101879.67
2019-02-06T18:59:24.026Z,101879.67
2019-02-06T19:01:55.308Z,101871.72
2019-02-06T19:04:23.497Z,101864.09
2019-02-06T19:06:52.132Z,101857.25
2019-02-06T19:09:20.962Z,101854.52
2019-02-06T19:11:49.569Z,101859.22
2019-02-06T19:14:19.192Z,101857.67
2019-02-06T19:16:48.311Z,101860.13
2019-02-06T19:19:26.323Z,101857.06
2019-02-06T19:21:48.278Z,101857.06
2019-02-06T19:24:17.830Z,101852.76
2019-02-06T19:26:46.654Z,101843.48
2019-02-06T19:29:15.105Z,101837.96
2019-02-06T19:31:44.731Z,101830.58
2019-02-06T19:34:13.352Z,101825.87
2019-02-06T19:36:42.040Z,101826.91
2019-02-06T19:39:10.708Z,101819.44
2019-02-06T19:41:40.035Z,101814.67
2019-02-06T19:44:11.252Z,101815.79
2019-02-06T19:46:39.515Z,101826.95
2019-02-06T19:49:08.642Z,101829.19
2019-02-06T19:51:37.470Z,101824.41
2019-02-06T19:54:06.199Z,101825.37
2019-02-06T19:56:35.723Z,101824.08
2019-02-06T19:59:05.187Z,101818.86
2019-02-06T20:01:34.252Z,101817.34
2019-02-06T20:04:03.045Z,101803.17
2019-02-06T20:06:32.585Z,101804.44
2019-02-06T20:09:10.496Z,101797.47
2019-02-06T20:11:39.135Z,101794.06
2019-02-06T20:14:07.841Z,101793.91
2019-02-06T20:16:37.502Z,101786.28
2019-02-06T20:19:06.582Z,101797.42
2019-02-06T20:21:36.077Z,101788.87
2019-02-06T20:24:06.273Z,101777.42
2019-02-06T20:26:35.381Z,101773.05
2019-02-06T20:29:04.298Z,101773.91
2019-02-06T20:31:33.581Z,101761.95
2019-02-06T20:34:02.188Z,101752.81
2019-02-06T20:36:31.185Z,101751.50
2019-02-06T20:39:00.396Z,101748.67
2019-02-06T20:41:29.369Z,101745.00
2019-02-06T20:43:58.297Z,101747.63
2019-02-06T20:46:27.402Z,101743.14
2019-02-06T20:48:56.075Z,101732.30
2019-02-06T20:51:24.735Z,101730.60
2019-02-06T20:53:53.468Z,101730.21
2019-02-06T20:56:23.290Z,101733.86
2019-02-06T20:58:52.185Z,101727.23
2019-02-06T21:01:20.741Z,101727.43
2019-02-06T21:03:49.569Z,101722.20
2019-02-06T21:06:18.173Z,101728.48
2019-02-06T21:08:46.801Z,101728.63
2019-02-06T21:11:15.814Z,101727.88
2019-02-06T21:13:44.767Z,101723.91
2019-02-06T21:16:13.352Z,101718.99
2019-02-06T21:18:42.082Z,101715.13
2019-02-06T21:21:10.659Z,101710.83
2019-02-06T21:23:39.165Z,101704.59
2019-02-06T21:26:07.693Z,101708.42
2019-02-06T21:28:36.766Z,101699.48
2019-02-06T21:31:05.671Z,101700.49
2019-02-06T21:33:34.238Z,101697.05
2019-02-06T21:36:02.858Z,101692.56
2019-02-06T21:38:31.922Z,101689.58
2019-02-06T21:41:00.402Z,101689.19
2019-02-06T21:43:29.983Z,101687.02
2019-02-06T21:45:58.819Z,101688.45
2019-02-06T21:48:27.298Z,101681.64
2019-02-06T21:50:56.425Z,101682.81
2019-02-06T21:53:24.990Z,101679.36
2019-02-06T21:55:53.558Z,101664.73
2019-02-06T21:58:22.182Z,101671.12
2019-02-06T22:00:50.749Z,101672.47
2019-02-06T22:03:19.377Z,101676.73
2019-02-06T22:05:48.016Z,101673.33
2019-02-06T22:08:16.496Z,101673.09
2019-02-06T22:10:45.081Z,101671.20
2019-02-06T22:13:13.812Z,101666.06
2019-02-06T22:15:46.596Z,101662.77
2019-02-06T22:18:15.590Z,101661.41
2019-02-06T22:20:44.266Z,101659.02
2019-02-06T22:23:12.735Z,101652.54
2019-02-06T22:25:41.365Z,101657.07
2019-02-06T22:28:10.027Z,101652.44
2019-02-06T22:30:38.698Z,101643.91
2019-02-06T22:33:07.499Z,101644.00
2019-02-06T22:35:35.972Z,101636.16
2019-02-06T22:38:04.828Z,101630.86
2019-02-06T22:40:33.658Z,101633.12
2019-02-06T22:43:03.272Z,101628.31
2019-02-06T22:45:31.796Z,101623.80
2019-02-06T22:48:00.748Z,101620.77
2019-02-06T22:50:29.414Z,101615.08
2019-02-06T22:52:58.356Z,101614.73
2019-02-06T22:57:52.606Z,101617.90
2019-02-06T23:00:45.143Z,101614.43
2019-02-06T23:03:16.834Z,101599.84
2019-02-06T23:05:46.657Z,101599.77
2019-02-06T23:08:15.168Z,101585.73
2019-02-06T23:10:43.845Z,101587.75
2019-02-06T23:13:12.670Z,101586.31
2019-02-06T23:15:41.694Z,101584.61
2019-02-06T23:18:11.185Z,101583.45
2019-02-06T23:20:39.831Z,101574.59
2019-02-06T23:23:08.550Z,101576.30
2019-02-06T23:25:36.994Z,101569.42
2019-02-06T23:28:05.819Z,101566.90
2019-02-06T23:30:35.288Z,101568.29
2019-02-06T23:33:04.031Z,101566.59
2019-02-06T23:35:32.699Z,101563.11
2019-02-06T23:38:01.701Z,101558.98
2019-02-06T23:40:31.220Z,101556.20
2019-02-06T23:43:00.135Z,101548.16
2019-02-06T23:45:28.855Z,101540.08
2019-02-06T23:47:57.420Z,101537.98
2019-02-06T23:50:25.890Z,101543.16
2019-02-06T23:52:54.454Z,101533.16
2019-02-06T23:55:22.884Z,101528.36
2019-02-06T23:57:52.056Z,101530.37
